createdAt,value
2018-12-19T00:01:26.881Z,18.97
2018-12-19T00:03:53.417Z,17.60
2018-12-19T00:06:19.869Z,19.80
2018-12-19T00:08:46.249Z,17.33
2018-12-19T00:11:12.721Z,18.10
2018-12-19T00:16:31.670Z,17.37
2018-12-19T00:18:58.120Z,17.60
2018-12-19T00:21:25.107Z,19.93
2018-12-19T00:23:52.327Z,18.97
2018-12-19T00:29:11.815Z,18.70
2018-12-19T00:31:38.163Z,19.27
2018-12-19T00:34:04.600Z,21.10
2018-12-19T00:36:31.040Z,18.67
2018-12-19T00:38:58.786Z,19.00
2018-12-19T00:41:25.796Z,17.23
2018-12-19T00:43:52.916Z,16.70
2018-12-19T00:46:19.163Z,16.77
2018-12-19T00:48:45.999Z,18.00
2018-12-19T00:51:12.529Z,17.47
2018-12-19T00:53:38.932Z,18.07
2018-12-19T00:56:05.327Z,17.27
2018-12-19T00:58:31.861Z,18.87
2018-12-19T01:00:58.363Z,16.77
2018-12-19T01:03:25.720Z,17.30
2018-12-19T01:08:45.239Z,16.77
2018-12-19T01:11:11.444Z,17.93
2018-12-19T01:13:37.691Z,16.40
2018-12-19T01:16:04.143Z,17.10
2018-12-19T01:18:30.462Z,17.53
2018-12-19T01:20:57.397Z,15.97
2018-12-19T01:23:23.607Z,17.33
2018-12-19T01:25:49.964Z,16.00
2018-12-19T01:28:16.184Z,18.00
2018-12-19T01:33:34.869Z,15.60
2018-12-19T01:36:07.957Z,15.50
2018-12-19T01:38:34.280Z,16.70
2018-12-19T01:41:00.712Z,15.53
2018-12-19T01:43:26.941Z,15.87
2018-12-19T01:45:53.153Z,16.17
2018-12-19T01:48:19.436Z,15.63
2018-12-19T01:50:46.652Z,16.03
2018-12-19T01:53:12.854Z,16.10
2018-12-19T01:55:39.388Z,15.00
2018-12-19T01:58:06.441Z,15.67
2018-12-19T02:00:33.715Z,16.13
2018-12-19T02:03:00.576Z,15.07
2018-12-19T02:05:27.057Z,17.37
2018-12-19T02:07:53.316Z,14.73
2018-12-19T02:10:19.572Z,15.60
2018-12-19T02:12:45.910Z,15.87
2018-12-19T02:15:12.357Z,17.47
2018-12-19T02:17:39.052Z,15.00
2018-12-19T02:20:05.484Z,15.90
2018-12-19T02:22:31.759Z,15.33
2018-12-19T02:24:58.088Z,16.83
2018-12-19T02:27:24.481Z,15.93
2018-12-19T02:29:50.975Z,15.80
2018-12-19T02:32:17.172Z,16.73
2018-12-19T02:34:43.485Z,15.60
2018-12-19T02:37:10.007Z,15.93
2018-12-19T02:39:36.503Z,15.57
2018-12-19T02:42:03.081Z,15.50
2018-12-19T02:44:29.368Z,15.00
2018-12-19T02:46:55.634Z,16.50
2018-12-19T02:49:21.877Z,14.90
2018-12-19T02:51:48.100Z,15.73
2018-12-19T02:54:14.362Z,14.30
2018-12-19T02:56:40.683Z,16.10
2018-12-19T02:59:06.976Z,16.00
2018-12-19T03:01:33.280Z,15.67
2018-12-19T03:03:59.547Z,15.30
2018-12-19T03:06:25.806Z,17.70
2018-12-19T03:08:52.109Z,16.30
2018-12-19T03:11:19.360Z,16.63
2018-12-19T03:13:47.635Z,15.90
2018-12-19T03:16:13.872Z,15.90
2018-12-19T03:18:40.195Z,15.53
2018-12-19T03:21:07.446Z,16.30
2018-12-19T03:23:33.785Z,15.93
2018-12-19T03:26:00.018Z,16.57
2018-12-19T03:28:26.368Z,17.57
2018-12-19T03:30:53.539Z,17.10
2018-12-19T03:33:19.947Z,16.07
2018-12-19T03:35:46.305Z,17.23
2018-12-19T03:38:14.620Z,15.90
2018-12-19T03:40:40.900Z,15.90
2018-12-19T03:43:07.195Z,16.73
2018-12-19T03:45:33.527Z,16.57
2018-12-19T03:47:59.746Z,16.40
2018-12-19T03:50:26.009Z,16.13
2018-12-19T03:52:52.319Z,16.27
2018-12-19T03:55:18.511Z,16.60
2018-12-19T03:57:44.819Z,16.47
2018-12-19T04:00:11.190Z,17.00
2018-12-19T04:02:37.416Z,17.37
2018-12-19T04:05:04.976Z,17.10
2018-12-19T04:07:31.203Z,16.00
2018-12-19T04:09:58.287Z,16.00
2018-12-19T04:12:24.696Z,15.57
2018-12-19T04:14:50.915Z,15.63
2018-12-19T04:17:17.154Z,15.60
2018-12-19T04:19:43.335Z,15.70
2018-12-19T04:22:09.592Z,15.27
2018-12-19T04:24:35.878Z,15.83
2018-12-19T04:27:02.180Z,16.30
2018-12-19T04:29:28.521Z,17.70
2018-12-19T04:31:55.558Z,17.10
2018-12-19T04:34:21.764Z,18.73
2018-12-19T04:36:48.036Z,16.10
2018-12-19T04:39:14.404Z,14.97
2018-12-19T04:41:41.710Z,16.93
2018-12-19T04:44:08.050Z,15.00
2018-12-19T04:46:34.401Z,16.50
2018-12-19T04:49:00.995Z,16.17
2018-12-19T04:51:28.023Z,15.60
2018-12-19T04:56:47.209Z,16.93
2018-12-19T04:59:13.538Z,16.17
2018-12-19T05:01:39.790Z,18.50
2018-12-19T05:04:06.013Z,21.63
2018-12-19T05:06:32.950Z,19.73
2018-12-19T05:08:59.295Z,19.67
2018-12-19T05:11:25.767Z,17.37
2018-12-19T05:13:52.050Z,16.23
2018-12-19T05:16:18.288Z,15.57
2018-12-19T05:18:44.489Z,14.90
2018-12-19T05:21:10.917Z,15.33
2018-12-19T05:23:37.155Z,16.50
2018-12-19T05:26:04.407Z,15.20
2018-12-19T05:28:30.651Z,16.03
2018-12-19T05:30:56.875Z,15.53
2018-12-19T05:33:23.146Z,15.57
2018-12-19T05:35:49.422Z,17.97
2018-12-19T05:38:15.690Z,16.70
2018-12-19T05:40:42.117Z,16.13
2018-12-19T05:43:08.302Z,16.47
2018-12-19T05:45:35.481Z,17.33
2018-12-19T05:48:01.845Z,17.77
2018-12-19T05:50:28.486Z,16.50
2018-12-19T05:52:55.349Z,17.60
2018-12-19T05:55:21.513Z,15.50
2018-12-19T05:57:47.735Z,15.50
2018-12-19T06:00:14.131Z,15.73
2018-12-19T06:02:40.412Z,15.30
2018-12-19T06:05:06.850Z,15.40
2018-12-19T06:07:33.109Z,15.17
2018-12-19T06:09:59.423Z,14.20
2018-12-19T06:12:25.871Z,13.50
2018-12-19T06:14:52.248Z,15.77
2018-12-19T06:17:18.482Z,21.90
2018-12-19T06:19:44.755Z,14.60
2018-12-19T06:22:11.176Z,15.50
2018-12-19T06:27:30.012Z,14.33
2018-12-19T06:29:56.932Z,14.80
2018-12-19T06:32:23.193Z,13.30
2018-12-19T06:34:49.464Z,13.80
2018-12-19T06:37:16.004Z,14.30
2018-12-19T06:39:42.386Z,15.27
2018-12-19T06:42:08.668Z,15.20
2018-12-19T06:44:38.774Z,14.63
2018-12-19T06:47:04.992Z,14.10
2018-12-19T06:49:31.219Z,14.00
2018-12-19T06:51:57.618Z,14.83
2018-12-19T06:54:23.995Z,13.53
2018-12-19T06:56:50.192Z,13.53
2018-12-19T06:59:16.421Z,13.97
2018-12-19T07:01:42.662Z,15.23
2018-12-19T07:04:09.156Z,14.50
2018-12-19T07:06:36.140Z,15.87
2018-12-19T07:09:05.000Z,14.40
2018-12-19T07:11:31.348Z,13.80
2018-12-19T07:13:57.571Z,14.17
2018-12-19T07:16:23.820Z,14.47
2018-12-19T07:18:50.662Z,13.00
2018-12-19T07:21:17.581Z,13.73
2018-12-19T07:23:44.060Z,14.03
2018-12-19T07:26:10.345Z,13.67
2018-12-19T07:28:36.587Z,14.10
2018-12-19T07:31:02.956Z,15.67
2018-12-19T07:33:29.153Z,16.50
2018-12-19T07:35:55.362Z,15.30
2018-12-19T07:38:21.593Z,14.80
2018-12-19T07:40:47.849Z,14.80
2018-12-19T07:43:14.254Z,14.33
2018-12-19T07:45:40.579Z,14.33
2018-12-19T07:48:06.797Z,14.97
2018-12-19T07:50:33.195Z,15.33
2018-12-19T07:52:59.597Z,15.17
2018-12-19T07:55:28.316Z,15.43
2018-12-19T07:57:54.704Z,14.27
2018-12-19T08:00:27.235Z,15.43
2018-12-19T08:02:49.246Z,15.70
2018-12-19T08:05:15.569Z,15.90
2018-12-19T08:07:41.815Z,15.87
2018-12-19T08:10:08.249Z,16.50
2018-12-19T08:12:36.187Z,14.40
2018-12-19T08:15:03.080Z,15.50
2018-12-19T08:17:29.370Z,14.10
2018-12-19T08:19:55.615Z,14.67
2018-12-19T08:22:21.797Z,15.03
2018-12-19T08:24:48.053Z,15.17
2018-12-19T08:27:14.364Z,16.77
2018-12-19T08:29:40.650Z,15.10
2018-12-19T08:32:06.967Z,16.30
2018-12-19T08:34:33.320Z,16.10
2018-12-19T08:36:59.513Z,15.60
2018-12-19T08:39:25.878Z,15.50
2018-12-19T08:41:52.414Z,15.53
2018-12-19T08:44:18.961Z,15.10
2018-12-19T08:46:45.241Z,16.37
2018-12-19T08:49:11.468Z,18.13
2018-12-19T08:51:37.856Z,16.53
2018-12-19T08:54:04.115Z,20.27
2018-12-19T08:56:30.419Z,16.87
2018-12-19T08:58:56.852Z,15.63
2018-12-19T09:01:23.188Z,15.97
2018-12-19T09:03:49.492Z,17.47
2018-12-19T09:06:15.840Z,16.03
2018-12-19T09:08:42.133Z,15.00
2018-12-19T09:11:08.379Z,15.70
2018-12-19T09:13:34.731Z,17.30
2018-12-19T09:16:01.336Z,15.83
2018-12-19T09:18:27.754Z,19.33
2018-12-19T09:20:53.970Z,16.70
2018-12-19T09:23:20.350Z,18.10
2018-12-19T09:25:46.622Z,16.37
2018-12-19T09:28:12.878Z,18.87
2018-12-19T09:30:39.102Z,18.40
2018-12-19T09:33:05.360Z,18.30
2018-12-19T09:35:31.751Z,20.57
2018-12-19T09:37:59.100Z,16.63
2018-12-19T09:40:25.345Z,17.77
2018-12-19T09:42:51.564Z,16.70
2018-12-19T09:45:17.806Z,17.50
2018-12-19T09:47:44.178Z,17.77
2018-12-19T09:50:10.695Z,17.03
2018-12-19T09:52:36.983Z,15.57
2018-12-19T09:55:04.194Z,17.17
2018-12-19T09:57:30.703Z,16.20
2018-12-19T09:59:57.112Z,15.60
2018-12-19T10:02:23.674Z,17.37
2018-12-19T10:04:49.955Z,16.07
2018-12-19T10:07:16.404Z,16.80
2018-12-19T10:09:42.649Z,16.33
2018-12-19T10:12:08.895Z,17.40
2018-12-19T10:14:35.200Z,15.63
2018-12-19T10:17:01.482Z,15.30
2018-12-19T10:19:27.778Z,16.20
2018-12-19T10:21:53.955Z,15.40
2018-12-19T10:24:22.423Z,15.80
2018-12-19T10:26:48.642Z,16.57
2018-12-19T10:29:14.933Z,16.40
2018-12-19T10:31:41.129Z,17.07
2018-12-19T10:34:07.507Z,16.30
2018-12-19T10:36:36.541Z,17.80
2018-12-19T10:39:06.858Z,17.30
2018-12-19T10:41:33.148Z,16.13
2018-12-19T10:43:59.593Z,16.50
2018-12-19T10:46:25.952Z,16.17
2018-12-19T10:48:52.256Z,16.53
2018-12-19T10:51:18.497Z,16.50
2018-12-19T10:53:44.783Z,16.63
2018-12-19T10:56:11.072Z,17.13
2018-12-19T10:58:37.341Z,17.67
2018-12-19T11:01:04.739Z,17.10
2018-12-19T11:03:31.016Z,16.33
2018-12-19T11:05:57.318Z,17.53
2018-12-19T11:08:23.603Z,15.80
2018-12-19T11:10:49.831Z,18.47
2018-12-19T11:13:16.074Z,17.20
2018-12-19T11:15:42.327Z,17.40
2018-12-19T11:18:08.812Z,17.23
2018-12-19T11:20:35.151Z,16.60
2018-12-19T11:23:01.559Z,18.43
2018-12-19T11:25:27.953Z,19.47
2018-12-19T11:27:54.208Z,17.60
2018-12-19T11:30:20.512Z,18.00
2018-12-19T11:32:46.968Z,16.90
2018-12-19T11:35:13.501Z,19.70
2018-12-19T11:37:39.676Z,16.50
2018-12-19T11:40:07.027Z,17.57
2018-12-19T11:42:33.320Z,18.40
2018-12-19T11:44:59.545Z,18.13
2018-12-19T11:47:25.912Z,17.53
2018-12-19T11:49:52.139Z,17.00
2018-12-19T11:52:18.593Z,17.37
2018-12-19T11:54:44.994Z,18.43
2018-12-19T11:57:11.404Z,18.20
2018-12-19T11:59:37.740Z,17.67
2018-12-19T12:02:04.063Z,18.33
2018-12-19T12:04:30.308Z,16.50
2018-12-19T12:06:56.593Z,17.80
2018-12-19T12:09:22.945Z,17.60
2018-12-19T12:11:49.287Z,17.00
2018-12-19T12:14:15.577Z,16.50
2018-12-19T12:16:41.894Z,16.43
2018-12-19T12:19:08.299Z,16.73
2018-12-19T12:21:34.518Z,17.83
2018-12-19T12:24:00.857Z,16.73
2018-12-19T12:26:27.156Z,17.33
2018-12-19T12:28:53.506Z,17.03
2018-12-19T12:31:19.743Z,17.80
2018-12-19T12:33:46.565Z,18.10
2018-12-19T12:36:13.782Z,17.10
2018-12-19T12:38:39.971Z,17.00
2018-12-19T12:41:06.407Z,16.77
2018-12-19T12:43:32.683Z,17.80
2018-12-19T12:45:59.687Z,17.63
2018-12-19T12:48:25.955Z,16.83
2018-12-19T12:50:52.235Z,16.70
2018-12-19T12:53:18.411Z,17.27
2018-12-19T12:55:44.748Z,17.40
2018-12-19T12:58:11.735Z,17.10
2018-12-19T13:00:38.274Z,17.37
2018-12-19T13:03:04.494Z,18.63
2018-12-19T13:05:30.859Z,20.00
2018-12-19T13:08:01.992Z,18.00
2018-12-19T13:10:28.347Z,16.97
2018-12-19T13:12:54.695Z,18.00
2018-12-19T13:15:27.170Z,18.07
2018-12-19T13:17:53.733Z,17.60
2018-12-19T13:20:19.947Z,16.43
2018-12-19T13:22:46.352Z,19.03
2018-12-19T13:25:12.677Z,16.50
2018-12-19T13:27:38.995Z,19.23
2018-12-19T13:30:06.999Z,18.97
2018-12-19T13:32:34.197Z,18.90
2018-12-19T13:35:00.503Z,19.20
2018-12-19T13:37:27.835Z,17.70
2018-12-19T13:39:54.178Z,18.23
2018-12-19T13:42:20.376Z,16.53
2018-12-19T13:44:46.643Z,17.27
2018-12-19T13:47:13.461Z,17.80
2018-12-19T13:49:39.792Z,17.07
2018-12-19T13:52:06.224Z,17.63
2018-12-19T13:54:33.285Z,17.20
2018-12-19T13:56:59.529Z,18.27
2018-12-19T13:59:25.822Z,18.50
2018-12-19T14:01:52.007Z,18.43
2018-12-19T14:04:18.418Z,18.20
2018-12-19T14:06:44.671Z,18.20
2018-12-19T14:09:11.198Z,17.77
2018-12-19T14:11:37.404Z,18.40
2018-12-19T14:14:03.817Z,17.40
2018-12-19T14:16:30.016Z,19.30
2018-12-19T14:18:56.825Z,19.10
2018-12-19T14:21:23.051Z,18.03
2018-12-19T14:23:49.448Z,17.10
2018-12-19T14:26:15.878Z,19.10
2018-12-19T14:28:42.203Z,17.60
2018-12-19T14:31:08.503Z,18.73
2018-12-19T14:33:35.175Z,18.17
2018-12-19T14:36:02.060Z,18.40
2018-12-19T14:38:28.455Z,19.43
2018-12-19T14:40:54.782Z,18.87
2018-12-19T14:43:20.994Z,19.93
2018-12-19T14:45:47.292Z,19.70
2018-12-19T14:48:13.521Z,17.63
2018-12-19T14:50:39.711Z,17.43
2018-12-19T14:53:05.981Z,17.60
2018-12-19T14:55:32.206Z,19.73
2018-12-19T14:57:58.394Z,18.23
2018-12-19T15:00:24.620Z,18.00
2018-12-19T15:02:50.872Z,18.10
2018-12-19T15:05:17.211Z,17.87
2018-12-19T15:07:43.424Z,19.87
2018-12-19T15:10:09.618Z,17.83
2018-12-19T15:12:35.824Z,18.03
2018-12-19T15:15:03.108Z,17.37
2018-12-19T15:17:29.414Z,19.13
2018-12-19T15:19:55.616Z,19.27
2018-12-19T15:22:21.824Z,17.27
2018-12-19T15:24:48.011Z,18.90
2018-12-19T15:27:14.224Z,18.53
2018-12-19T15:29:40.473Z,20.50
2018-12-19T15:32:06.729Z,17.87
2018-12-19T15:34:32.959Z,18.33
2018-12-19T15:36:59.165Z,17.77
2018-12-19T15:39:25.417Z,18.87
2018-12-19T15:41:51.671Z,18.73
2018-12-19T15:44:17.881Z,17.93
2018-12-19T15:46:44.242Z,18.73
2018-12-19T15:49:10.459Z,17.87
2018-12-19T15:51:36.665Z,18.73
2018-12-19T15:54:02.946Z,17.53
2018-12-19T15:56:29.312Z,24.67
2018-12-19T15:58:55.585Z,23.70
2018-12-19T16:01:21.779Z,19.60
2018-12-19T16:03:48.123Z,19.60
2018-12-19T16:09:06.879Z,21.97
2018-12-19T16:11:33.156Z,21.60
2018-12-19T16:13:59.394Z,20.63
2018-12-19T16:16:25.910Z,19.77
2018-12-19T16:18:52.183Z,21.47
2018-12-19T16:21:18.485Z,23.03
2018-12-19T16:23:44.901Z,26.23
2018-12-19T16:26:11.899Z,20.80
2018-12-19T16:28:38.138Z,21.80
2018-12-19T16:31:04.351Z,19.37
2018-12-19T16:33:30.565Z,19.50
2018-12-19T16:35:56.966Z,19.70
2018-12-19T16:38:23.212Z,22.23
2018-12-19T16:40:49.592Z,20.37
2018-12-19T16:43:15.777Z,20.30
2018-12-19T16:48:34.362Z,19.30
2018-12-19T16:51:00.563Z,20.23
2018-12-19T16:53:26.784Z,22.63
2018-12-19T16:55:52.990Z,22.70
2018-12-19T16:58:19.232Z,22.60
2018-12-19T17:00:45.433Z,22.17
2018-12-19T17:03:11.691Z,21.83
2018-12-19T17:05:37.967Z,21.77
2018-12-19T17:08:04.180Z,21.10
2018-12-19T17:10:30.429Z,20.60
2018-12-19T17:12:56.696Z,20.47
2018-12-19T17:15:22.969Z,22.00
2018-12-19T17:17:49.270Z,21.40
2018-12-19T17:20:15.486Z,19.80
2018-12-19T17:22:41.763Z,21.27
2018-12-19T17:25:08.299Z,20.40
2018-12-19T17:27:34.510Z,21.43
2018-12-19T17:30:01.480Z,21.60
2018-12-19T17:32:27.746Z,21.70
2018-12-19T17:34:55.378Z,22.30
2018-12-19T17:37:21.837Z,21.60
2018-12-19T17:39:48.114Z,20.97
2018-12-19T17:42:14.396Z,21.97
2018-12-19T17:44:40.610Z,21.67
2018-12-19T17:47:06.838Z,22.27
2018-12-19T17:49:33.188Z,22.10
2018-12-19T17:51:59.573Z,21.93
2018-12-19T17:54:25.802Z,22.27
2018-12-19T17:56:52.029Z,22.70
2018-12-19T17:59:18.393Z,24.23
2018-12-19T18:01:44.651Z,22.07
2018-12-19T18:04:10.970Z,22.13
2018-12-19T18:06:37.190Z,24.70
2018-12-19T18:09:05.116Z,22.90
2018-12-19T18:11:31.969Z,22.30
2018-12-19T18:13:58.339Z,25.17
2018-12-19T18:16:24.703Z,23.33
2018-12-19T18:18:51.053Z,25.20
2018-12-19T18:21:17.457Z,25.50
2018-12-19T18:23:43.715Z,24.53
2018-12-19T18:26:09.970Z,25.27
2018-12-19T18:31:31.197Z,25.93
2018-12-19T18:33:57.979Z,26.17
2018-12-19T18:36:24.792Z,26.10
2018-12-19T18:38:51.419Z,26.30
2018-12-19T18:41:18.000Z,25.43
2018-12-19T18:43:45.610Z,26.20
2018-12-19T18:46:12.220Z,26.17
2018-12-19T18:48:38.862Z,24.80
2018-12-19T18:51:06.650Z,24.77
2018-12-19T18:53:33.522Z,26.30
2018-12-19T18:55:59.908Z,25.03
2018-12-19T18:58:26.239Z,23.97
2018-12-19T19:00:52.823Z,25.00
2018-12-19T19:03:19.070Z,24.43
2018-12-19T19:05:45.274Z,25.47
2018-12-19T19:08:11.677Z,25.80
2018-12-19T19:10:38.068Z,25.13
2018-12-19T19:13:04.493Z,23.90
2018-12-19T19:15:30.731Z,25.57
2018-12-19T19:17:57.134Z,24.30
2018-12-19T19:20:23.694Z,25.20
2018-12-19T19:22:50.262Z,25.00
2018-12-19T19:25:16.616Z,24.63
2018-12-19T19:27:43.002Z,25.93
2018-12-19T19:30:09.463Z,24.37
2018-12-19T19:32:35.877Z,24.97
2018-12-19T19:35:02.515Z,26.80
2018-12-19T19:37:28.762Z,26.30
2018-12-19T19:39:55.010Z,24.27
2018-12-19T19:42:22.530Z,25.20
2018-12-19T19:44:48.907Z,24.07
2018-12-19T19:47:15.218Z,24.10
2018-12-19T19:49:41.488Z,25.53
2018-12-19T19:52:08.318Z,24.83
2018-12-19T19:54:34.573Z,24.30
2018-12-19T19:57:00.914Z,25.97
2018-12-19T19:59:27.205Z,23.10
2018-12-19T20:01:53.441Z,24.80
2018-12-19T20:04:19.750Z,22.67
2018-12-19T20:06:45.998Z,25.77
2018-12-19T20:09:12.273Z,23.43
2018-12-19T20:11:38.721Z,25.30
2018-12-19T20:14:05.017Z,25.67
2018-12-19T20:16:33.658Z,24.67
2018-12-19T20:19:00.220Z,24.80
2018-12-19T20:21:26.545Z,25.47
2018-12-19T20:23:52.883Z,25.27
2018-12-19T20:26:19.197Z,25.47
2018-12-19T20:28:45.394Z,25.77
2018-12-19T20:31:11.723Z,27.50
2018-12-19T20:33:38.054Z,26.57
2018-12-19T20:36:04.316Z,26.83
2018-12-19T20:38:30.568Z,25.67
2018-12-19T20:40:56.901Z,25.67
2018-12-19T20:43:23.118Z,25.07
2018-12-19T20:45:49.393Z,25.10
2018-12-19T20:48:15.736Z,25.27
2018-12-19T20:50:42.037Z,25.77
2018-12-19T20:53:08.312Z,24.27
2018-12-19T20:55:34.742Z,25.67
2018-12-19T20:58:01.085Z,24.63
2018-12-19T21:00:27.969Z,26.80
2018-12-19T21:02:54.327Z,24.53
2018-12-19T21:08:13.680Z,23.30
2018-12-19T21:10:40.007Z,25.17
2018-12-19T21:13:06.306Z,25.87
2018-12-19T21:15:32.519Z,25.37
2018-12-19T21:21:00.325Z,23.60
2018-12-19T21:23:26.573Z,24.00
2018-12-19T21:25:52.858Z,23.13
2018-12-19T21:28:19.084Z,24.83
2018-12-19T21:30:45.365Z,24.40
2018-12-19T21:33:14.145Z,24.37
2018-12-19T21:35:40.116Z,27.50
2018-12-19T21:38:06.445Z,24.90
2018-12-19T21:40:33.034Z,23.40
2018-12-19T21:42:59.479Z,25.40
2018-12-19T21:45:28.306Z,24.40
2018-12-19T21:47:54.590Z,25.10
2018-12-19T21:50:20.812Z,25.00
2018-12-19T21:52:47.223Z,25.37
2018-12-19T21:55:13.508Z,25.97
2018-12-19T21:57:39.792Z,23.80
2018-12-19T22:00:09.103Z,25.00
2018-12-19T22:02:35.604Z,25.17
2018-12-19T22:05:01.867Z,25.20
2018-12-19T22:07:28.144Z,24.17
2018-12-19T22:09:54.494Z,25.90
2018-12-19T22:12:20.948Z,26.03
2018-12-19T22:14:47.375Z,24.90
2018-12-19T22:17:20.087Z,25.80
2018-12-19T22:19:46.400Z,25.00
2018-12-19T22:22:14.637Z,24.60
2018-12-19T22:24:40.928Z,25.13
2018-12-19T22:27:07.148Z,24.47
2018-12-19T22:29:33.474Z,25.67
2018-12-19T22:31:59.925Z,25.83
2018-12-19T22:34:26.304Z,25.27
2018-12-19T22:36:52.667Z,26.00
2018-12-19T22:39:19.483Z,26.73
2018-12-19T22:41:45.918Z,26.17
2018-12-19T22:44:12.229Z,25.53
2018-12-19T22:46:38.598Z,26.60
2018-12-19T22:49:04.962Z,26.37
2018-12-19T22:51:31.652Z,25.30
2018-12-19T22:53:58.022Z,25.90
2018-12-19T22:56:24.559Z,26.27
2018-12-19T22:58:50.792Z,26.13
2018-12-19T23:01:23.589Z,27.43
2018-12-19T23:03:56.097Z,25.23
2018-12-19T23:06:22.395Z,25.43
2018-12-19T23:08:48.918Z,27.37
2018-12-19T23:11:15.269Z,28.13
2018-12-19T23:13:41.814Z,27.07
2018-12-19T23:16:08.175Z,26.00
2018-12-19T23:18:35.729Z,26.20
2018-12-19T23:21:02.143Z,27.30
2018-12-19T23:23:28.504Z,28.67
2018-12-19T23:25:54.893Z,26.50
2018-12-19T23:28:21.375Z,27.80
2018-12-19T23:30:50.902Z,26.03
2018-12-19T23:33:17.519Z,26.80
2018-12-19T23:35:44.026Z,26.00
2018-12-19T23:41:03.105Z,27.57
2018-12-19T23:43:29.432Z,25.30
2018-12-19T23:45:55.853Z,26.53
2018-12-19T23:48:22.432Z,27.67
2018-12-19T23:50:48.853Z,25.30
2018-12-19T23:53:15.233Z,26.43
2018-12-19T23:55:41.626Z,25.97
2018-12-19T23:58:08.117Z,25.07
